22.01.2017Höhe
ü. NN
ZeitTemperatur (°C)Nieder-
schlag
Luft-
feuchte
Luft-
druck
Wind
StationaktuellMinimumMaximumaktuellMaximum
Allmannsweiler625 m09:00-12,5-14,9 (05:20)-10,8 (00:00)0,0 l/m²93%1029,53,2 km/h (1 Bft) O-NO3,2 km/h (1 Bft) O-NO (05:25)
Allmendingen541 m09:00-14,6-18,1 (06:05)-14,6 (14:00)0,0 l/m²89%1030,50,0 km/h (0 Bft) SW8,0 km/h (2 Bft) S-SW (14:40)
Altshausen574 m08:56-11,7-14,2 (06:08)-10,3 (00:00)0,0 l/m²93%1028,11,6 km/h (1 Bft) N3,2 km/h (1 Bft) N (00:13)
Amstetten-Reutti663 m09:00-13,0-13,7 (07:00)-10,3 (14:40)0,0 l/m²91%1028,96,4 km/h (2 Bft) O17,7 km/h (3 Bft) O (16:00)
Aulendorf570 m09:00-12,2-13,1 (05:09)-10,8 (00:00)0,0 l/m²91%1028,96,4 km/h (2 Bft) NO8,0 km/h (2 Bft) NO (08:37)
Bad Schussenried572 m09:00-12,2-14,1 (05:25)-10,5 (00:00)0,0 l/m²94%1028,30,0 km/h (0 Bft) O-NO4,8 km/h (1 Bft) O-NO (07:15)
Bergatreute615 m09:00-10,8-15,1 (04:30)-10,7 (07:35)0,0 l/m²93%1029,70,0 km/h (0 Bft) NW0,0 km/h (0 Bft) N-NW (00:00)
Biberach (Riss)533 m08:40-12,1-14,6 (04:30)-10,5 (00:10)0,0 l/m²93%1025,30,0 km/h (0 Bft) N0,0 km/h (0 Bft) N (08:40)
Bodnegg-Rotheidlen677 m09:00-11,8-13,0 (07:10)-10,2 (00:30)0,0 l/m²92%1029,10,0 km/h (0 Bft) W0,0 km/h (0 Bft) W (00:00)
Burgrieden523 m09:00-12,6-14,8 (03:50)-11,8 (00:00)0,0 l/m²87%1030,00,0 km/h (0 Bft) S3,2 km/h (1 Bft) S-SW (07:20)
Burgrieden-Hochstetten510 m08:15-11,9-14,6 (03:40)-11,4 (14:45)0,0 l/m²91%1030,33,2 km/h (1 Bft) O6,4 km/h (2 Bft) NW (14:10)
Donauwörth411 m09:00-10,6-14,3 (05:00)-10,5 (08:55)0,0 l/m²93%1030,28,0 km/h (2 Bft) O-SO8,0 km/h (2 Bft) SO (09:00)
Ebersbach579 m09:00-12,2-14,8 (06:00)-11,1 (00:00)0,0 l/m²92%1030,50,0 km/h (0 Bft) N-NO0,0 km/h (0 Bft) N-NO (00:00)
Ebersbach-Boos605 m09:00-12,6-15,1 (06:05)-10,9 (00:00)0,0 l/m²92%1030,00,0 km/h (0 Bft) N0,0 km/h (0 Bft) N-NO (00:00)
Ebersbach-Menzenweiler661 m09:00-12,7-12,9 (08:30)-9,9 (00:35)0,0 l/m²92%1029,60,0 km/h (0 Bft) O11,3 km/h (2 Bft) O-NO (00:20)
Erlenmoos645 m09:00-12,1-13,3 (00:25)-12,0 (04:45)0,0 l/m²93%1029,80,0 km/h (0 Bft) O3,2 km/h (1 Bft) S-SO (05:40)
Ertingen569 m09:00-13,5-15,0 (07:15)-10,7 (00:00)0,0 l/m²91%1029,51,6 km/h (1 Bft) NW3,2 km/h (1 Bft) N-NW (00:10)
Friedrichshafen405 m08:55-9,3-10,0 (05:50)-8,2 (14:15)0,0 l/m²92%1029,78,0 km/h (2 Bft) N-NO14,5 km/h (3 Bft) N-NO (23:10)
Furkajoch (AT)1630 m08:501,60,8 (01:30)2,2 (03:30)0,0 l/m²16%1019,620,9 km/h (4 Bft) NO32,2 km/h (5 Bft) O-NO (02:55)
Günzburg443 m09:00-12,6-13,3 (03:30)-11,9 (00:00)0,0 l/m²88%1026,80,0 km/h (0 Bft) N3,2 km/h (1 Bft) NO (02:40)
Höchsten802 m09:00-5,9-10,5 (07:05)-5,2 (04:40)0,0 l/m²95%1026,34,8 km/h (1 Bft) O-NO14,5 km/h (3 Bft) N (00:15)
Horgenzell618 m09:00-13,3-13,3 (04:00)-11,5 (00:00)0,0 l/m²91%1027,40,0 km/h (0 Bft) NW8,0 km/h (2 Bft) NW (00:45)
Hoßkirch632 m09:00-12,6-14,4 (07:35)-10,8 (04:10)0,0 l/m²93%1029,21,6 km/h (1 Bft) N6,4 km/h (2 Bft) W-SW (03:15)
Isny im Allgäu695 m09:00-14,0-15,8 (03:45)-13,1 (05:55)0,0 l/m²90%1029,40,0 km/h (0 Bft) SW8,0 km/h (2 Bft) SW (01:00)
Kappel-Grafenhausen163 m08:55-9,1-10,3 (09:00)-7,9 (14:50)0,0 l/m²92%1026,83,2 km/h (1 Bft) N-NO6,4 km/h (2 Bft) N-NO (12:50)
Kirchberg an der Iller584 m09:00-12,1-13,5 (03:15)-12,1 (15:05)0,0 l/m²89%1016,80,0 km/h (0 Bft) NW4,2 km/h (1 Bft) S (19:25)
Kißlegg-Staibshof709 m09:00-12,3-13,4 (08:20)-8,9 (01:30)0,0 l/m²93%1029,10,0 km/h (0 Bft) N-NO8,0 km/h (2 Bft) NO (00:05)
Kressbronn398 m09:02-8,5-8,8 (08:32)-7,1 (00:00)0,0 l/m²91%1028,46,4 km/h (2 Bft) NO9,7 km/h (2 Bft) NO (00:16)
Kreuzthal-Steinbergalm930 m09:00-4,4-5,8 (08:00)-4,2 (09:00)0,0 l/m²97%1025,00,0 km/h (0 Bft) S-SO4,0 km/h (1 Bft) SW (04:20)
Kreuzthal-Steinberggipfel1040 m08:50-1,3-3,5 (01:00)-1,0 (08:50)-55%1025,03,6 km/h (1 Bft) N-NO5,8 km/h (2 Bft) N-NO (08:10)
Kristberg im Montafon (AT)1425 m09:00-2,4-3,7 (04:05)-1,4 (06:30)0,0 l/m²36%1024,91,6 km/h (1 Bft) N-NO11,3 km/h (2 Bft) NO (06:20)
Laupheim500 m09:00-12,6-13,8 (04:55)-11,3 (00:00)0,0 l/m²90%1029,61,6 km/h (1 Bft) O6,4 km/h (2 Bft) W-SW (02:50)
Leutkirch-Heggelbach670 m09:00-13,8-14,5 (04:15)-12,2 (00:00)0,0 l/m²91%1028,80,0 km/h (0 Bft) N-NO0,0 km/h (0 Bft) N-NO (00:00)
Lindau-Insel420 m09:00-9,4-9,7 (07:30)-6,9 (15:05)0,0 l/m²92%1028,86,4 km/h (2 Bft) NO14,5 km/h (3 Bft) NO (10:50)
Lindau-Stadt412 m09:00-9,7-9,9 (08:05)-7,4 (15:20)0,0 l/m²92%1028,83,2 km/h (1 Bft) O-NO11,3 km/h (2 Bft) NO (10:40)
Maierhöfen im Allgäu733 m09:00-18,7-19,2 (08:00)-16,9 (00:00)0,0 l/m²87%1030,50,0 km/h (0 Bft) S-SW1,6 km/h (1 Bft) S-SW (01:45)
Mindelheim-Apfeltrach620 m08:56-13,9-14,9 (23:18)-13,5 (15:24)0,0 l/m²90%1030,00,0 km/h (0 Bft) S-SO6,4 km/h (2 Bft) S-SO (09:07)
Neresheim552 m09:00-12,7-16,1 (05:00)-12,7 (09:00)0,0 l/m²97%1025,00,0 km/h (0 Bft) N0,0 km/h (0 Bft) N (09:00)
Neukirch570 m09:00-11,0-13,8 (03:05)-10,4 (14:20)0,0 l/m²92%1029,70,0 km/h (0 Bft) N-NO0,0 km/h (0 Bft) N (10:00)
Ochsenhausen613 m09:00-12,4-13,8 (01:45)-12,4 (00:00)0,0 l/m²85%1029,90,0 km/h (0 Bft) S3,2 km/h (1 Bft) S-SW (03:25)
Ostrach619 m08:55-11,3-12,1 (08:05)-9,3 (14:35)0,0 l/m²92%1023,33,2 km/h (1 Bft) N-NW8,0 km/h (2 Bft) N-NW (13:10)
Ravensburg428 m09:00-9,9-11,1 (06:50)-8,9 (00:00)0,0 l/m²92%1029,36,4 km/h (2 Bft) N14,5 km/h (3 Bft) NO (00:15)
Reichenbach an der Fils343 m09:00-11,6-12,4 (07:50)-7,7 (00:00)0,0 l/m²87%1030,23,2 km/h (1 Bft) O8,0 km/h (2 Bft) O (08:55)
Riedlingen530 m09:00-13,7-15,6 (07:20)-12,1 (00:00)0,0 l/m²91%1030,10,0 km/h (0 Bft) W3,2 km/h (1 Bft) O-NO (00:00)
Rißtissen489 m09:00-11,9-15,2 (05:05)-11,8 (00:00)0,0 l/m²91%1027,70,0 km/h (0 Bft) O-NO0,0 km/h (0 Bft) W (00:00)
Schemmerhofen520 m09:00-8,6-8,6 (00:00)-8,6 (00:00)0,0 l/m²94%1029,10,0 km/h (0 Bft) NO0,0 km/h (0 Bft) NO (00:00)
Silbertal im Montafon (AT)884 m09:00-7,8-8,1 (05:15)-7,3 (02:25)0,0 l/m²91%1029,20,0 km/h (0 Bft) N0,0 km/h (0 Bft) W-NW (00:00)
Tettnang466 m09:00-9,0-12,0 (02:10)-9,0 (09:00)0,0 l/m²92%1028,34,8 km/h (1 Bft) N-NO8,0 km/h (2 Bft) N (02:30)
Tuttlingen662 m09:00-16,7-18,0 (08:00)-14,6 (00:00)0,0 l/m²86%1030,11,6 km/h (1 Bft) O-NO3,2 km/h (1 Bft) O-NO (08:50)
Waldburg707 m09:00-11,4-12,9 (07:25)-10,7 (00:00)0,0 l/m²93%1029,00,0 km/h (0 Bft) NW0,0 km/h (0 Bft) N (00:00)
Waltenhofen im Allgäu720 m09:00-17,5-18,7 (08:05)-15,1 (00:00)0,0 l/m²88%1029,40,0 km/h (0 Bft) S1,6 km/h (1 Bft) S (01:00)
Wangen im Allgäu569 m09:05-12,4-15,0 (02:30)-11,8 (06:25)0,0 l/m²89%1028,40,0 km/h (0 Bft) N-NO6,4 km/h (2 Bft) N-NO (06:35)
Wangen-Epplings569 m09:00-14,3-17,4 (03:10)-14,2 (08:10)0,0 l/m²90%1030,30,0 km/h (0 Bft) SO8,0 km/h (2 Bft) O-SO (04:10)
Weingarten500 m09:00-10,1-12,8 (05:00)-9,9 (00:00)0,0 l/m²92%1029,54,8 km/h (1 Bft) W-SW8,0 km/h (2 Bft) NO (00:45)
Winterlingen785 m08:30-12,4-13,6 (08:15)-11,4 (06:15)0,0 l/m²91%1027,21,4 km/h (1 Bft) N-NO2,2 km/h (1 Bft) N-NW (08:20)

niederschlagsdatenbank | info | login - erfassung

Sollten Sie Interesse haben, an der Niederschlagsdatenbank teilzunehmen, finden Sie > hier < weitere Informationen.
Datum: . . Kalender
Anmerkung:0,0 = nicht messbarer Niederschlag
 -  = kein Niederschlag
 k  = kumulierter Niederschlag

< 13.02.201215.02.2012 >


Niederschlagswerte vom 14.02.2012    -    derzeit 105 Stationen

Die Niederschlagswerte des gewählten Tages lassen sich durch Klicken auf das Datum sortieren.
Die Angaben sind in l/m².

Station11.02.12.02.13.02.14.02.15.02.16.02.17.02.Bemerkung 14.02.
Aichstetten-Nestbaum-------
Albbruck -------
Allmendingen--1,05,010,20,0-
Schnee
Amstetten-Reutti-------
Aulendorf0,4-4,01,014,10,8-
Schneehöhe: 16 cm
Aulendorf-Blönried--4,91,212,2--
Schnee
Schneehöhe: 15 cm
Aulendorf-Zollenreute-------
Bad Buchau-------
Bad Saulgau Walserweg--5,01,511,0--
Schnee
Schneehöhe: 20 cm
Bad Saulgau-Hochberg0,0-4,31,012,0--
Bad Schussenried Konradstraße0,0-6,21,19,00,00,1
Schnee
Schneehöhe: 17 cm
Bad Schussenried Lortzingstrasse--5,02,17,5-0,0
Schnee
Bad Schussenried Klosterstraße--4,02,09,0--
Schnee
Bad Schussenried Theodor-Storm-Strasse-------
Bad Schussenried-Hopferbach-------
Bad Schussenried-Schwaigfurt--5,02,08,0-0,5
Schneehöhe: 10cm
Bad Waldsee-Haisterkirch0,0-0,59,015,00,00,2
-6,5/-0,8°C, bedeckt, gegen Norden aufgelockert, zur Nacht Schneefall
Schnee
Schneehöhe: 12 cm
Bad Wurzach-Dietmanns--5,50,09,0--
Schnee
Schneehöhe: 15 cm
Baienfurt-0,05,06,010,01,00,0
Schnee
Schneehöhe: 12 cm
Balzheim-------
Berg-Kleintobel0,0-5,62,910,5--
Schnee
Schneehöhe: 15 cm
Betzenweiler0,00,03,63,75,30,1-
Pulverschnee, starker Wind
Schnee
Schneehöhe: 12 cm
Biberach Amriswilstrasse--4,41,010,1--
Schnee
Schneehöhe: 14 cm
Biberach Strölinweg-------
Biberach Erlenweg--4,01,09,51,0-
Biberach Neue Heimat 5-------
Biberach-Bergerhausen-------
Bierstetten--5,02,0---
Schneehöhe: * 15 cm
Blaubeuren-Pappelau--3,512,0--9,0
es schneit weiter aber er wird feuchter
Schnee
Schneehöhe: 15 cm
Bühlertal-------
Schnee
Schneehöhe: 3 cm
Dettingen a. d. Iller-------
Dornstadt-Tomerdingen--1,53,55,6--
Schneehöhe: 7 cm
Dürnau---1,02,015,0-
Eberhardzell Lilienweg0,00,04,34,59,10,20,1
Schnee
Schneehöhe: 15 cm
Ehingen Rosenstraße--1,20,88,50,0-
Schnee
Schneehöhe: 5 cm
Ehingen Zanderstraße---4,29,2--
Schnee
Ehingen Schlaufenbühl--1,53,07,20,3-
Neuschnee 10cm
Schnee
Schneehöhe: 5 cm
Ehingen Schillerstraße-------
w/Schneeverwehungen ist Schneehöhe geschätzt
Schnee
Schneehöhe: 2 cm
Ehingen-Herbertshofen-------
Eislingen0,0-2,89,64,10,02,8
Schneeregen Schnee
Schneehöhe: 6 cm
Erbach-Bach-------
Schneehöhe: 3 cm
Erlenmoos0,00,03,22,97,80,00,1
Schnee
Schneehöhe: 11 cm
Füramoos0,00,00,00,00,00,00,0
Schneehöhe:25 cm
Gutenzell-------
Herbertingen Drosselweg0,0-4,01,011,50,0-
Ab Mittag und gegen Abend Aufheiterungen und etwas Sonne! Anschließ [weiterlesen...]
Schnee
Schneehöhe: 10-12cm
Herbertingen Hirschstrasse--3,0-14,0--
Schneehöhe: 11 cm
Hochdorf-Schweinhausen--4,82,53,3--
Schnee
Schneehöhe: 13 cm
Hohentengen-Bremen--2,52,58,0--
Schnee
Schneehöhe: 8 cm
Horgenzell-Ringgenweiler--4,13,86,30,0-
Schneehöhe: 12 cm
Hoßkirch--3,91,04,3--
Schnee
Schneehöhe: 14 cm
Hüttisheim0,0-2,02,08,00,50,0
Schnee
Schneehöhe: 10 cm
Illerkirchberg--2,04,08,11,1-
Schnee
Schneehöhe: 10 cm
Ingoldingen-Grodt-------
Inzigkofen0,0-0,91,110,50,0-
Schnee
Schneehöhe: 8 cm
Isny--2,25,213,00,2-
In der Früh sehr windig mit Schneefall und starken Schneeverwehungen!
Schnee
Schneehöhe: 16 cm
Kirchberg--3,01,66,80,0-
4 cm Neuschnee
Schnee
Schneehöhe: 10 cm
Kreuzthal-Steinberg0,50,01,86,722,80,0-
Schnee
Schneehöhe: 68 cm
Langenau-------
Langenenslingen0,20,01,42,28,30,10,0
Schnee
Schneehöhe: 6 cm
Leutkirch Unterer Auenweg 250,00,05,35,511,10,0-
Schnee
Leutkirch Nachtigallenweg 28-------
Leutkirch-Adrazhofen-------
Leutkirch-Wuchzenhofen--2,36,214,1--
Schnee
Mietingen-------
+5cm Schnee am 14.02.12
Schnee
Schneehöhe: 15 cm
Mietingen-Walpertshofen-------
Mittelbiberach-Reute-------
Moosburg--3,2-7,1--
Bewölkt, am Nachmittag Aufheiterungen. Am Abend einsetzender Schneefa [weiterlesen...]
Schnee
Schneehöhe: 14 cm
Münsingen-Rietheim0,0-2,43,011,01,00,8
Schnee stark verweht.
Schnee
Schneehöhe: 18 cm
Neresheim-------
Oberdischingen-------
Schnee
Ochsenhausen--0,80,26,40,00,0
Schnee
Schneehöhe: 12 cm
Öpfingen--1,52,08,00,1-
Schnee
Schneehöhe: 5 cm
Ostrach Uhlandweg--4,01,011,5--
Schnee
Schneehöhe: 6 cm
Pfaffenhofen-Kadeltshofen--1,55,06,01,00,0
durch den kräftigen Südwestwind ist der Schnee stark verweht
Schneehöhe: 10 cm
Pfullendorf Am Schweizersbild -------
Schneehöhe 12 cm
Schnee
Rangendingen--2,0-5,5--
Ravensburg Bleicherstraße--4,93,57,5--
Ravensburg Olgastraße--4,93,911,2--
Schnee
Schneehöhe: 14 cm
Ravensburg-Schmalegg--3,0----
Schneehöhe: 14 cm
Ravensburg-Wernsreute-------
Ravensburg-Weststadt--4,03,010,8--
Schnee
Schneehöhe: 14 cm
Riedhausen--1,82,24,2--
Temp. -2,8 °C bis -1,2 °C, Windböen aus S bis 46,7 km/h
Schnee
Schneehöhe: 10 cm
Riedlingen-Neufra-------
Schelklingen-Gundershofen-------
Schemmerberg--4,00,98,00,8-
Sigmaringendorf0,0-0,91,56,50,2-
Schnee
Stuttgart-Möhringen-------
Talheim0,0-0,00,70,00,0-
Nachts leichter Schneefall bei Windstille und Temperaturen um - 6 C°, [weiterlesen...]
Schnee
Schneehöhe: 20 cm
Tannheim-------
Tuttlingen-Möhringen Eßlinger Straße0,0-0,71,86,30,7-
Min. -8,0°C / Max. -0,8°C Tagsüber wiederholtes Schneetreiben! Dab [weiterlesen...]
Schnee
Schneehöhe: 6.0cm / Kühltal 13cm
Ummendorf Bergstraße--5,53,55,00,00,0
Schnee
Schneehöhe: 18 cm
Ummendorf Tulpenweg--3,0-9,5--
Schnee
Schneehöhe: 12 cm
Uttenweiler-Ahlen--4,21,16,20,1-
Schnee
Vöhringen-------
Waldburg--4,55,09,0--
Schneehöhe: 18 cm
Wangen-Atzenberg-------
Wangen-Bergerhöhe-------
Warthausen An der Schloßhalde -------
-2,0°C 4 cm Neuschnee
Schnee
Schneehöhe: 23 cm
Warthausen Schwabenwiesen -----0,7-
Weingarten Laurastraße--6,02,513,0--
Schneeregen Schnee
Schneehöhe: 9 cm
Weingarten Hoyerstraße-------
Weingarten Marienstraße---0,013,00,10,5
Schnee
Schneehöhe: 10 cm
Wolfegg-Veesers--6,52,513,5--
Wolpertswende--0,00,00,0--
Schnee
Schneehöhe: 15 cm
Wurmlingen-------

Stillgelegte Niederschlagsstationen    -    derzeit 36 Stationen

StationLetzte Meldung11.02.12.02.13.02.14.02.15.02.16.02.17.02.Bemerkung 14.02.
Allmannsweiler02.09.2014-------
Aulendorf-Rugetsweiler 25.07.20130,0-6,02,015,5-1,5
Schneeregen Schnee
Bad Saulgau Willi-Burth-Straße19.09.2011-------
Bad Saulgau Eichendorffweg28.03.2013-------
Bad Saulgau Seewattenstraße 12815.01.2014-------
Bad Saulgau-Lampertsweiler18.02.2015--6,11,29,90,0-
die schneehöhe kann nicht genau bestimmt werden, sie ist durch die ve [weiterlesen...]
Schnee
Schneehöhe: 17 cm
Bad Schussenried-Steinhausen26.09.2012--4,82,59,0-0,1
Schnee
Schneehöhe: 10 cm
Bad Waldsee-Michelwinnanden31.12.2014-------
Bad Waldsee-Osterhofen06.03.2015-------
Schnee
Schneehöhe: 15 cm
Bad Waldsee-Steinach10.11.2013-------
Bad Wurzach-Haidgau07.10.2012--4,0----
Schneehöhe: 23.0 cm
Bad Wurzach-Ziegelbach07.11.2014-------
Schneehöhe: 14 cm
Bergatreute13.02.2012--5,0----
Schneehöhe: 6 cm
Burgrieden28.10.2013--1,60,25,8--
Schneehöhe: 10 cm
Burgrieden-Rot18.09.2013-------
Eberhardzell Schillerstraße05.07.2010-------
Ebersbach-Roßwälden01.07.2013-------
Ehingen Am Elzengraben17.06.20160,0-1,04,09,00,0-
Der Messbecher war gestrichen voll, es waren also wohl mehr als die ge [weiterlesen...]
Schnee
Schneehöhe: 5 cm
Gammertingen16.01.20160,0-0,63,216,8--
Schnee
Schneehöhe: 8 cm
Griesingen06.10.2015-------
Günzburg31.12.2010-------
Kisslegg02.05.2011-------
Krauchenwies-Hausen23.11.2013--3,54,26,3--
Schnee
Kressbronn10.03.2010-------
Leutkirch-Ottmannshofen27.07.20120,0-1,32,06,50,00,0
Schnee
Schneehöhe: 27 cm
Leutkirch-Rotis08.05.2016-------
Mössingen-Bästenhardt21.07.2014-------
Ostrach Heiligenberger Straße19.08.2013-------
Pfullendorf Ringstraße 18.03.2012-------
Seltmans09.04.2013--2,08,216,60,2-
Schnee
Schneehöhe: 56 cm
Stuttgart-Bad Cannstatt03.02.2013--2,04,53,50,02,5
Den ganzen Tag über leichter Schneefall in Regen übergehend. Schneer [weiterlesen...]
Stuttgart-Rohr07.11.2012---6,03,0-0,5
Bewölkt,LeichterSchneefall,-3,6°C,87%->+ 0,1°C,999hPa.,->SW [weiterlesen...]
Schnee
Schneehöhe: 2 cm
Tettnang-Ramsbach26.03.2011-------
Tuttlingen-Möhringen Belchenstraße01.01.20150,0-0,52,08,50,5-
Schnee
Vogt22.05.2015-------
Weingarten Bischof-Sproll-Straße30.06.2011-------
Wilhelmsdorf Riedhauser Straße 28.10.20120,8-3,53,04,8--
Wilhelmsdorf Seefeld20.08.2013-------
Die Niederschlagswerte des gewählten Tages lassen sich durch Klicken auf das Datum sortieren.
Die Angaben sind in l/m².

Wetterbeobachtungen Legende:

  • Regen
  • Nieselregen
  • Schneeregen
  • Schnee
  • Graupel
  • Eiskörner
  • Hagel
  • Bodennebel
  • Gewitter
  • Nebelnässe
  • Schneegriesel

< 13.02.201215.02.2012 >Monats- und Jahresniederschlag


 
wetterstationen
wetterstationen
- derzeit 59 Stationen
niederschlagsdatenbank
wetterstationen
- kartographische Darstellung
niederschlagsdatenbank
niederschlagsstationen
- derzeit 105 Stationen
niederschlagsdatenbank
niederschlagsstationen
- kartographische Darstellung
 
 
Sa. 7.30 Uhr - So. 7.30 Uhr (MEZ)
1.Füramoos0,0 l/m²
2.Tannheim0,0 l/m²
 
So. 22.01.2017 - 7.30 Uhr (MEZ)
1.Kreuzthal-Steinberg40 cm
2.Bad Saulgau
Walserweg
15 cm
3.Tannheim14 cm
4.Weingarten
Laurastraße
8 cm-
5.Ochsenhausen6 cm
6.Balzheim4 cm
7.Langenau3cm
8.Riedhausen3 cm
9.Stuttgart-Möhringen1 cm
10.Herbertingen
Drosselweg
ca 5 cm
 
  treffpunkt & service
--- Anzeigen --------------------------------
neuburger it :: computer netzwerk administration
zugriffe:
insgesamt: 30.957.925
aktueller monat: 299.652
heute: 2.721
momentan online: 93
 
 
monatshöchstwert: 525.050
vorheriger monat: 222.585
gestern: 10.527
tageshöchstwert: 41.209
 
wetterwarte süd
 
konradstraße 3
info@wetterwarte-sued.com
roland roth
 
88427 bad schussenried